RYR717M EGCC-EDDB
Flight info
| Callsign | RYR717M |
|---|---|
| Flight time | N/A |
| Altitude | 37000 |
| Route | SONEX1Y SONEX L975 DESIG L603 LAMSO DCT EVELI DCT BATEL T207 OGBER OGBER1R |
| Aircraft | B38M/M-SDE1FGHILORVWXY/HB1 |
Departure
| Time | N/A |
|---|---|
| Airport | Manchester Airport (EGCC) |
Arrival
| Time | 2026-05-04 20:21 |
|---|---|
| Airport | Berlin Brandenburg Airport (EDDB) |
| Time | Latitude | Longitude | Altitude | Speed | Heading |
|---|---|---|---|---|---|
| 2026-05-04 19:55 | 52.58716 | 10.10672 | 34325 ft | 458 kts | 97° |
| 2026-05-04 19:56 | 52.58086 | 10.27702 | 32588 ft | 451 kts | 97° |
| 2026-05-04 19:56 | 52.57892 | 10.32827 | 32126 ft | 447 kts | 97° |
| 2026-05-04 19:56 | 52.57701 | 10.37838 | 31655 ft | 444 kts | 97° |
| 2026-05-04 19:57 | 52.57502 | 10.42953 | 30726 ft | 441 kts | 94° |
| 2026-05-04 19:57 | 52.57117 | 10.52847 | 30313 ft | 435 kts | 97° |
| 2026-05-04 19:57 | 52.56921 | 10.57812 | 29686 ft | 436 kts | 97° |
| 2026-05-04 19:58 | 52.56722 | 10.62759 | 29179 ft | 433 kts | 97° |
| 2026-05-04 19:58 | 52.56523 | 10.67671 | 28742 ft | 429 kts | 97° |
| 2026-05-04 19:58 | 52.56325 | 10.72523 | 28290 ft | 425 kts | 97° |
| 2026-05-04 19:58 | 52.56125 | 10.77351 | 27843 ft | 422 kts | 97° |
| 2026-05-04 19:59 | 52.55926 | 10.82143 | 27400 ft | 419 kts | 97° |
| 2026-05-04 19:59 | 52.55726 | 10.86905 | 26965 ft | 416 kts | 97° |
| 2026-05-04 19:59 | 52.55526 | 10.91620 | 26533 ft | 413 kts | 97° |
| 2026-05-04 19:59 | 52.55324 | 10.96335 | 26103 ft | 411 kts | 97° |
| 2026-05-04 20:00 | 52.55123 | 11.00985 | 25684 ft | 408 kts | 97° |
| 2026-05-04 20:00 | 52.54921 | 11.05622 | 25255 ft | 406 kts | 97° |
| 2026-05-04 20:00 | 52.54752 | 11.10204 | 24832 ft | 406 kts | 92° |
| 2026-05-04 20:00 | 52.54894 | 11.14862 | 24377 ft | 406 kts | 89° |
| 2026-05-04 20:01 | 52.55025 | 11.19454 | 24004 ft | 399 kts | 90° |
| 2026-05-04 20:01 | 52.55136 | 11.23952 | 23621 ft | 391 kts | 90° |
| 2026-05-04 20:01 | 52.55235 | 11.28369 | 23170 ft | 384 kts | 91° |
| 2026-05-04 20:01 | 52.55328 | 11.32729 | 22749 ft | 379 kts | 91° |
| 2026-05-04 20:02 | 52.55417 | 11.37037 | 22355 ft | 376 kts | 91° |
| 2026-05-04 20:02 | 52.55504 | 11.41318 | 21980 ft | 374 kts | 91° |
| 2026-05-04 20:02 | 52.55589 | 11.45570 | 21598 ft | 371 kts | 91° |
| 2026-05-04 20:02 | 52.55672 | 11.49781 | 21219 ft | 369 kts | 91° |
| 2026-05-04 20:03 | 52.55752 | 11.53959 | 20851 ft | 367 kts | 91° |
| 2026-05-04 20:03 | 52.55831 | 11.58103 | 20471 ft | 365 kts | 91° |
| 2026-05-04 20:03 | 52.55909 | 11.62299 | 20099 ft | 362 kts | 91° |
| 2026-05-04 20:03 | 52.55880 | 11.66423 | 19476 ft | 359 kts | 101° |
| 2026-05-04 20:04 | 52.55358 | 11.70329 | 18856 ft | 354 kts | 106° |
| 2026-05-04 20:04 | 52.54811 | 11.74328 | 18213 ft | 352 kts | 105° |
| 2026-05-04 20:04 | 52.54299 | 11.78204 | 17508 ft | 350 kts | 105° |
| 2026-05-04 20:04 | 52.53787 | 11.82153 | 16809 ft | 347 kts | 104° |
| 2026-05-04 20:05 | 52.53297 | 11.85957 | 16142 ft | 345 kts | 104° |
| 2026-05-04 20:05 | 52.52804 | 11.89796 | 15487 ft | 342 kts | 104° |
| 2026-05-04 20:05 | 52.52318 | 11.93577 | 14868 ft | 339 kts | 104° |
| 2026-05-04 20:05 | 52.51834 | 11.97335 | 14383 ft | 333 kts | 104° |
| 2026-05-04 20:06 | 52.51357 | 12.01023 | 14040 ft | 326 kts | 103° |
| 2026-05-04 20:06 | 52.50886 | 12.04665 | 13706 ft | 318 kts | 103° |
| 2026-05-04 20:06 | 52.50430 | 12.08172 | 13357 ft | 311 kts | 103° |
| 2026-05-04 20:06 | 52.50116 | 12.10586 | 13124 ft | 306 kts | 104° |
| 2026-05-04 20:07 | 52.49692 | 12.13832 | 12821 ft | 298 kts | 104° |
| 2026-05-04 20:07 | 52.49263 | 12.17124 | 12540 ft | 292 kts | 104° |
| 2026-05-04 20:08 | 52.48837 | 12.20371 | 12260 ft | 294 kts | 104° |
| 2026-05-04 20:08 | 52.48403 | 12.23683 | 11955 ft | 300 kts | 104° |
| 2026-05-04 20:08 | 52.47961 | 12.27051 | 11638 ft | 302 kts | 104° |
| 2026-05-04 20:08 | 52.47518 | 12.30408 | 11328 ft | 302 kts | 104° |
| 2026-05-04 20:09 | 52.47073 | 12.33780 | 11010 ft | 302 kts | 104° |
| 2026-05-04 20:09 | 52.46628 | 12.37144 | 10695 ft | 301 kts | 104° |
| 2026-05-04 20:09 | 52.46183 | 12.40492 | 10378 ft | 300 kts | 104° |
| 2026-05-04 20:09 | 52.45742 | 12.43810 | 10089 ft | 297 kts | 104° |
| 2026-05-04 20:10 | 52.45304 | 12.47096 | 9853 ft | 293 kts | 104° |
| 2026-05-04 20:10 | 52.44871 | 12.50339 | 9523 ft | 291 kts | 104° |
| 2026-05-04 20:10 | 52.44439 | 12.53570 | 9191 ft | 290 kts | 104° |
| 2026-05-04 20:10 | 52.44008 | 12.56778 | 8880 ft | 288 kts | 104° |
| 2026-05-04 20:11 | 52.43579 | 12.59969 | 8563 ft | 286 kts | 104° |
| 2026-05-04 20:11 | 52.43152 | 12.63137 | 8278 ft | 284 kts | 104° |
| 2026-05-04 20:11 | 52.42727 | 12.66276 | 7978 ft | 282 kts | 104° |
| 2026-05-04 20:11 | 52.42303 | 12.69410 | 7675 ft | 280 kts | 104° |
| 2026-05-04 20:12 | 52.41884 | 12.72498 | 7385 ft | 278 kts | 104° |
| 2026-05-04 20:12 | 52.41465 | 12.75579 | 7089 ft | 277 kts | 104° |
| 2026-05-04 20:12 | 52.41046 | 12.78655 | 6789 ft | 276 kts | 104° |
| 2026-05-04 20:12 | 52.40629 | 12.81712 | 6481 ft | 274 kts | 104° |
| 2026-05-04 20:13 | 52.40213 | 12.84757 | 6193 ft | 273 kts | 104° |
| 2026-05-04 20:13 | 52.39799 | 12.87777 | 5887 ft | 272 kts | 104° |
| 2026-05-04 20:13 | 52.39384 | 12.90795 | 5579 ft | 270 kts | 104° |
| 2026-05-04 20:13 | 52.38974 | 12.93776 | 5370 ft | 265 kts | 104° |
| 2026-05-04 20:14 | 52.38576 | 12.96663 | 5250 ft | 256 kts | 104° |
| 2026-05-04 20:14 | 52.38189 | 12.99458 | 5138 ft | 247 kts | 105° |
| 2026-05-04 20:14 | 52.37545 | 13.02017 | 5022 ft | 242 kts | 123° |
| 2026-05-04 20:14 | 52.36677 | 13.04376 | 4951 ft | 242 kts | 122° |
| 2026-05-04 20:15 | 52.35813 | 13.06732 | 4881 ft | 242 kts | 122° |
| 2026-05-04 20:15 | 52.34946 | 13.09097 | 4797 ft | 242 kts | 122° |
| 2026-05-04 20:15 | 52.34087 | 13.11433 | 4659 ft | 239 kts | 122° |
| 2026-05-04 20:15 | 52.33242 | 13.13732 | 4478 ft | 234 kts | 122° |
| 2026-05-04 20:16 | 52.32405 | 13.16006 | 3976 ft | 236 kts | 122° |
| 2026-05-04 20:16 | 52.31553 | 13.18319 | 3511 ft | 236 kts | 122° |
| 2026-05-04 20:16 | 52.30726 | 13.20562 | 3293 ft | 222 kts | 122° |
| 2026-05-04 20:16 | 52.29959 | 13.22662 | 3050 ft | 213 kts | 118° |
| 2026-05-04 20:17 | 52.29630 | 13.24912 | 2831 ft | 199 kts | 90° |
| 2026-05-04 20:17 | 52.29826 | 13.27064 | 2617 ft | 186 kts | 72° |
| 2026-05-04 20:17 | 52.30265 | 13.28952 | 2422 ft | 175 kts | 66° |
| 2026-05-04 20:17 | 52.30572 | 13.30179 | 2275 ft | 170 kts | 66° |
| 2026-05-04 20:18 | 52.31130 | 13.32510 | 1999 ft | 164 kts | 67° |
| 2026-05-04 20:18 | 52.31540 | 13.34228 | 1793 ft | 163 kts | 67° |
| 2026-05-04 20:18 | 52.31949 | 13.35946 | 1598 ft | 159 kts | 67° |
| 2026-05-04 20:18 | 52.32338 | 13.37581 | 1408 ft | 151 kts | 66° |
| 2026-05-04 20:19 | 52.32584 | 13.38620 | 1252 ft | 148 kts | 67° |
| 2026-05-04 20:19 | 52.32955 | 13.40180 | 1059 ft | 147 kts | 67° |
| 2026-05-04 20:19 | 52.33323 | 13.41730 | 839 ft | 146 kts | 67° |
| 2026-05-04 20:19 | 52.33699 | 13.43274 | 662 ft | 147 kts | 66° |
| 2026-05-04 20:20 | 52.34068 | 13.44836 | 459 ft | 147 kts | 68° |
| 2026-05-04 20:20 | 52.34439 | 13.46389 | 277 ft | 145 kts | 68° |
| 2026-05-04 20:20 | 52.34788 | 13.47863 | 157 ft | 128 kts | 70° |
| 2026-05-04 20:20 | 52.35050 | 13.48981 | 157 ft | 90 kts | 69° |
| 2026-05-04 20:21 | 52.35274 | 13.49912 | 157 ft | 88 kts | 69° |
| 2026-05-04 20:21 | 52.35399 | 13.50406 | 157 ft | 20 kts | 54° |
| 2026-05-04 20:21 | 52.35584 | 13.50698 | 157 ft | 18 kts | 34° |
| 2026-05-04 20:22 | 52.35688 | 13.50820 | 157 ft | 18 kts | 35° |
| 2026-05-04 20:22 | 52.35752 | 13.50834 | 157 ft | 9 kts | 346° |
| 2026-05-04 20:22 | 52.35836 | 13.50785 | 157 ft | 17 kts | 339° |
| 2026-05-04 20:22 | 52.35967 | 13.50703 | 157 ft | 22 kts | 339° |
| 2026-05-04 20:23 | 52.36116 | 13.50609 | 157 ft | 24 kts | 341° |
| 2026-05-04 20:23 | 52.36282 | 13.50502 | 157 ft | 27 kts | 338° |
| 2026-05-04 20:23 | 52.36462 | 13.50395 | 157 ft | 29 kts | 336° |
| 2026-05-04 20:23 | 52.36620 | 13.50287 | 157 ft | 0 kts | 338° |
| 2026-05-04 20:24 | 52.36621 | 13.50286 | 157 ft | 1 kts | 339° |
| 2026-05-04 20:24 | 52.36644 | 13.50272 | 157 ft | 8 kts | 340° |
| 2026-05-04 20:24 | 52.36740 | 13.50241 | 157 ft | 19 kts | 18° |
| 2026-05-04 20:24 | 52.36795 | 13.50414 | 157 ft | 19 kts | 68° |
| 2026-05-04 20:25 | 52.36845 | 13.50628 | 157 ft | 21 kts | 69° |
| 2026-05-04 20:25 | 52.36899 | 13.50857 | 157 ft | 19 kts | 69° |
| 2026-05-04 20:25 | 52.36925 | 13.50977 | 157 ft | 3 kts | 94° |
| 2026-05-04 20:25 | 52.36907 | 13.51007 | 157 ft | 5 kts | 150° |
| 2026-05-04 20:26 | 52.36880 | 13.51026 | 157 ft | 1 kts | 158° |
| 2026-05-04 20:26 | 52.36863 | 13.51038 | 157 ft | 1 kts | 158° |
| 2026-05-04 20:26 | 52.36862 | 13.51038 | 157 ft | 0 kts | 158° |